createdAt,value
2023-04-16T00:00:43.827Z,9.08
2023-04-16T00:03:10.465Z,8.98
2023-04-16T00:05:37.187Z,8.80
2023-04-16T00:08:03.718Z,8.89
2023-04-16T00:10:30.351Z,8.94
2023-04-16T00:12:56.884Z,9.04
2023-04-16T00:15:23.528Z,9.00
2023-04-16T00:17:50.043Z,8.97
2023-04-16T00:20:16.663Z,9.07
2023-04-16T00:22:43.354Z,9.01
2023-04-16T00:25:09.886Z,9.09
2023-04-16T00:27:36.376Z,9.15
2023-04-16T00:30:03.589Z,9.07
2023-04-16T00:32:30.791Z,8.97
2023-04-16T00:34:57.313Z,9.01
2023-04-16T00:37:23.934Z,9.07
2023-04-16T00:39:50.962Z,9.00
2023-04-16T00:42:17.433Z,8.95
2023-04-16T00:44:43.949Z,8.96
2023-04-16T00:47:11.484Z,9.00
2023-04-16T00:49:38.119Z,8.94
2023-04-16T00:52:04.663Z,9.00
2023-04-16T00:54:32.305Z,8.98
2023-04-16T00:56:59.673Z,9.01
2023-04-16T00:59:27.551Z,8.93
2023-04-16T01:01:54.185Z,8.90
2023-04-16T01:04:21.486Z,8.76
2023-04-16T01:06:48.167Z,8.73
2023-04-16T01:09:14.672Z,8.77
2023-04-16T01:11:41.123Z,8.87
2023-04-16T01:14:07.648Z,8.77
2023-04-16T01:16:34.115Z,8.75
2023-04-16T01:19:00.576Z,8.88
2023-04-16T01:21:27.417Z,8.99
2023-04-16T01:23:53.880Z,8.94
2023-04-16T01:26:20.430Z,8.91
2023-04-16T01:28:46.969Z,9.04
2023-04-16T01:31:13.458Z,9.08
2023-04-16T01:33:40.004Z,9.18
2023-04-16T01:36:06.925Z,9.06
2023-04-16T01:38:33.377Z,8.88
2023-04-16T01:40:59.921Z,8.90
2023-04-16T01:43:26.524Z,8.94
2023-04-16T01:46:13.005Z,8.60
2023-04-16T01:48:39.526Z,8.73
2023-04-16T01:51:06.206Z,8.85
2023-04-16T01:53:32.700Z,8.72
2023-04-16T01:55:59.207Z,8.69
2023-04-16T01:58:29.516Z,8.81
2023-04-16T02:00:56.303Z,8.83
2023-04-16T02:03:24.746Z,8.64
2023-04-16T02:05:52.014Z,8.69
2023-04-16T02:08:18.555Z,8.64
2023-04-16T02:10:50.109Z,8.59
2023-04-16T02:13:16.827Z,8.75
2023-04-16T02:15:50.825Z,8.83
2023-04-16T02:18:18.439Z,8.84
2023-04-16T02:20:47.026Z,8.74
2023-04-16T02:23:15.022Z,8.77
2023-04-16T02:25:43.217Z,8.82
2023-04-16T02:28:12.248Z,8.95
2023-04-16T02:30:40.552Z,8.82
2023-04-16T02:33:09.466Z,8.81
2023-04-16T02:35:37.329Z,8.93
2023-04-16T02:38:05.057Z,9.08
2023-04-16T02:40:32.335Z,9.06
2023-04-16T02:42:58.856Z,8.88
2023-04-16T02:45:25.521Z,8.92
2023-04-16T02:47:52.369Z,8.81
2023-04-16T02:50:19.161Z,8.83
2023-04-16T02:52:45.783Z,8.88
2023-04-16T02:55:12.556Z,8.95
2023-04-16T02:57:38.990Z,8.85
2023-04-16T03:00:06.346Z,8.96
2023-04-16T03:02:32.930Z,9.00
2023-04-16T03:04:59.458Z,8.87
2023-04-16T03:07:26.232Z,8.96
2023-04-16T03:09:52.724Z,8.97
2023-04-16T03:12:19.283Z,8.95
2023-04-16T03:14:46.006Z,8.86
2023-04-16T03:17:12.561Z,8.83
2023-04-16T03:19:39.131Z,8.94
2023-04-16T03:22:05.700Z,9.06
2023-04-16T03:24:32.188Z,8.97
2023-04-16T03:26:58.894Z,8.96
2023-04-16T03:29:26.671Z,8.82
2023-04-16T03:31:53.179Z,8.75
2023-04-16T03:34:19.733Z,8.82
2023-04-16T03:36:46.321Z,8.83
2023-04-16T03:39:12.900Z,8.89
2023-04-16T03:41:39.478Z,8.57
2023-04-16T03:44:06.215Z,8.64
2023-04-16T03:46:32.776Z,8.75
2023-04-16T03:48:59.269Z,8.71
2023-04-16T03:51:26.403Z,8.77
2023-04-16T03:53:53.044Z,8.67
2023-04-16T03:56:19.531Z,8.77
2023-04-16T03:58:46.109Z,8.87
2023-04-16T04:01:12.582Z,8.91
2023-04-16T04:03:39.401Z,8.97
2023-04-16T04:06:09.583Z,8.96
2023-04-16T04:08:36.415Z,9.11
2023-04-16T04:11:02.941Z,9.11
2023-04-16T04:13:29.387Z,9.05
2023-04-16T04:15:55.894Z,8.96
2023-04-16T04:18:22.488Z,8.99
2023-04-16T04:20:48.996Z,8.95
2023-04-16T04:23:15.669Z,8.74
2023-04-16T04:25:42.137Z,8.66
2023-04-16T04:28:08.653Z,8.56
2023-04-16T04:30:35.977Z,8.56
2023-04-16T04:33:02.832Z,8.49
2023-04-16T04:35:29.393Z,8.39
2023-04-16T04:37:56.125Z,8.35
2023-04-16T04:40:22.640Z,8.47
2023-04-16T04:42:49.215Z,8.44
2023-04-16T04:45:16.116Z,8.43
2023-04-16T04:47:42.734Z,8.56
2023-04-16T04:50:09.843Z,8.63
2023-04-16T04:52:36.335Z,8.45
2023-04-16T04:55:02.998Z,8.58
2023-04-16T04:57:29.447Z,8.73
2023-04-16T04:59:55.914Z,8.60
2023-04-16T05:02:22.518Z,8.53
2023-04-16T05:04:49.101Z,8.58
2023-04-16T05:07:16.454Z,8.60
2023-04-16T05:09:42.901Z,8.60
2023-04-16T05:12:09.335Z,8.59
2023-04-16T05:14:36.337Z,8.67
2023-04-16T05:17:02.964Z,8.71
2023-04-16T05:19:29.684Z,8.66
2023-04-16T05:21:56.248Z,8.65
2023-04-16T05:24:23.093Z,8.89
2023-04-16T05:26:49.617Z,8.72
2023-04-16T05:29:16.142Z,8.76
2023-04-16T05:31:42.914Z,8.82
2023-04-16T05:34:09.362Z,8.88
2023-04-16T05:36:35.804Z,8.96
2023-04-16T05:39:02.303Z,9.01
2023-04-16T05:41:28.939Z,9.06
2023-04-16T05:43:55.596Z,9.10
2023-04-16T05:46:22.098Z,9.16
2023-04-16T05:48:48.650Z,9.16
2023-04-16T05:51:15.233Z,9.15
2023-04-16T05:53:41.965Z,9.06
2023-04-16T05:56:08.651Z,9.02
2023-04-16T05:58:35.187Z,9.01
2023-04-16T06:01:01.944Z,8.92
2023-04-16T06:03:28.544Z,8.90
2023-04-16T06:05:55.404Z,8.91
2023-04-16T06:08:22.021Z,8.85
2023-04-16T06:10:49.101Z,8.93
2023-04-16T06:13:15.643Z,9.00
2023-04-16T06:15:42.187Z,9.08
2023-04-16T06:18:08.784Z,8.94
2023-04-16T06:20:35.600Z,8.89
2023-04-16T06:23:02.102Z,8.88
2023-04-16T06:25:28.595Z,8.99
2023-04-16T06:27:55.261Z,9.06
2023-04-16T06:30:21.805Z,9.11
2023-04-16T06:32:49.821Z,9.12
2023-04-16T06:35:16.353Z,9.14
2023-04-16T06:37:42.796Z,9.16
2023-04-16T06:40:09.793Z,9.01
2023-04-16T06:42:36.635Z,9.14
2023-04-16T06:45:03.269Z,9.19
2023-04-16T06:47:30.170Z,9.08
2023-04-16T06:49:56.925Z,9.02
2023-04-16T06:52:23.424Z,9.04
2023-04-16T06:54:49.869Z,9.06
2023-04-16T06:57:16.375Z,9.15
2023-04-16T06:59:43.055Z,9.16
2023-04-16T07:02:10.774Z,9.25
2023-04-16T07:04:37.406Z,9.30
2023-04-16T07:07:03.934Z,9.44
2023-04-16T07:09:30.539Z,9.49
2023-04-16T07:11:57.094Z,9.41
2023-04-16T07:14:23.669Z,9.44
2023-04-16T07:16:50.289Z,9.34
2023-04-16T07:19:16.793Z,9.38
2023-04-16T07:21:43.726Z,9.48
2023-04-16T07:24:14.043Z,9.65
2023-04-16T07:26:40.959Z,9.61
2023-04-16T07:29:07.642Z,9.56
2023-04-16T07:31:34.289Z,9.58
2023-04-16T07:34:01.110Z,9.61
2023-04-16T07:36:28.317Z,9.65
2023-04-16T07:38:55.874Z,9.73
2023-04-16T07:41:22.433Z,9.83
2023-04-16T07:43:48.950Z,9.69
2023-04-16T07:46:16.094Z,9.66
2023-04-16T07:48:43.122Z,9.77
2023-04-16T07:51:09.648Z,9.83
2023-04-16T07:53:36.207Z,9.86
2023-04-16T07:56:02.770Z,9.90
2023-04-16T07:58:29.300Z,9.87
2023-04-16T08:00:56.187Z,9.85
2023-04-16T08:03:23.106Z,9.88
2023-04-16T08:05:49.883Z,9.93
2023-04-16T08:08:16.378Z,9.77
2023-04-16T08:10:42.930Z,9.60
2023-04-16T08:13:09.405Z,9.41
2023-04-16T08:15:35.995Z,9.58
2023-04-16T08:18:02.746Z,9.51
2023-04-16T08:20:29.212Z,9.47
2023-04-16T08:22:55.718Z,9.40
2023-04-16T08:25:24.559Z,9.57
2023-04-16T08:27:51.172Z,9.67
2023-04-16T08:30:17.772Z,9.69
2023-04-16T08:32:44.389Z,9.69
2023-04-16T08:35:10.979Z,9.54
2023-04-16T08:37:37.575Z,9.46
2023-04-16T08:40:04.377Z,9.35
2023-04-16T08:42:37.013Z,9.49
2023-04-16T08:45:08.999Z,9.63
2023-04-16T08:47:37.229Z,9.49
2023-04-16T08:50:05.644Z,9.39
2023-04-16T08:52:32.667Z,9.57
2023-04-16T08:55:14.437Z,9.84
2023-04-16T08:57:59.468Z,10.05
2023-04-16T09:00:26.625Z,10.10
2023-04-16T09:02:54.026Z,10.11
2023-04-16T09:05:25.448Z,10.36
2023-04-16T09:07:54.569Z,9.82
2023-04-16T09:10:22.047Z,9.79
2023-04-16T09:12:48.639Z,9.75
2023-04-16T09:15:15.156Z,9.94
2023-04-16T09:17:41.809Z,10.11
2023-04-16T09:20:10.810Z,10.15
2023-04-16T09:22:38.672Z,10.20
2023-04-16T09:25:06.026Z,10.34
2023-04-16T09:27:32.589Z,10.15
2023-04-16T09:29:59.480Z,10.32
2023-04-16T09:32:28.537Z,10.26
2023-04-16T09:34:57.609Z,10.24
2023-04-16T09:37:26.685Z,10.33
2023-04-16T09:40:03.735Z,10.28
2023-04-16T09:42:36.970Z,10.24
2023-04-16T09:45:05.699Z,10.30
2023-04-16T09:47:42.746Z,10.05
2023-04-16T09:50:17.733Z,10.07
2023-04-16T09:52:51.485Z,10.11
2023-04-16T09:55:23.712Z,10.23
2023-04-16T09:58:00.425Z,10.21
2023-04-16T10:00:30.598Z,10.46
2023-04-16T10:03:07.341Z,10.50
2023-04-16T10:05:34.304Z,10.33
2023-04-16T10:08:02.044Z,10.48
2023-04-16T10:10:29.791Z,10.56
2023-04-16T10:12:56.518Z,10.57
2023-04-16T10:15:23.262Z,10.69
2023-04-16T10:17:51.203Z,10.59
2023-04-16T10:20:18.352Z,10.46
2023-04-16T10:22:45.442Z,10.69
2023-04-16T10:25:13.376Z,10.82
2023-04-16T10:27:41.001Z,11.06
2023-04-16T10:30:09.320Z,10.93
2023-04-16T10:32:38.180Z,10.74
2023-04-16T10:35:05.778Z,10.68
2023-04-16T10:37:32.650Z,10.60
2023-04-16T10:40:02.812Z,10.74
2023-04-16T10:42:29.462Z,10.49
2023-04-16T10:45:00.167Z,10.19
2023-04-16T10:47:28.903Z,10.26
2023-04-16T10:49:55.433Z,10.32
2023-04-16T10:52:24.464Z,10.50
2023-04-16T10:54:53.226Z,10.51
2023-04-16T10:57:20.536Z,10.53
2023-04-16T10:59:48.926Z,10.46
2023-04-16T11:02:18.224Z,10.56
2023-04-16T11:04:47.864Z,10.62
2023-04-16T11:07:33.227Z,10.64
2023-04-16T11:10:04.823Z,10.41
2023-04-16T11:12:50.873Z,10.23
2023-04-16T11:15:19.509Z,10.55
2023-04-16T11:17:51.723Z,10.48
2023-04-16T11:20:24.682Z,10.50
2023-04-16T11:22:54.541Z,10.63
2023-04-16T11:25:23.499Z,10.73
2023-04-16T11:27:52.007Z,10.96
2023-04-16T11:30:31.686Z,11.19
2023-04-16T11:32:58.247Z,11.21
2023-04-16T11:35:25.123Z,11.23
2023-04-16T11:37:57.805Z,11.08
2023-04-16T11:40:26.100Z,11.39
2023-04-16T11:42:52.613Z,11.15
2023-04-16T11:45:19.471Z,11.11
2023-04-16T11:47:53.379Z,11.32
2023-04-16T11:50:23.558Z,11.11
2023-04-16T11:52:52.603Z,11.01
2023-04-16T11:55:20.813Z,11.18
2023-04-16T11:57:47.846Z,11.58
2023-04-16T12:00:15.324Z,11.55
2023-04-16T12:02:51.310Z,11.89
2023-04-16T12:05:39.505Z,11.96
2023-04-16T12:08:11.606Z,11.59
2023-04-16T12:10:54.882Z,11.70
2023-04-16T12:13:21.618Z,11.91
2023-04-16T12:15:56.981Z,11.94
2023-04-16T12:18:27.058Z,12.02
2023-04-16T12:20:53.968Z,12.17
2023-04-16T12:23:29.753Z,12.15
2023-04-16T12:26:02.188Z,11.98
2023-04-16T12:28:34.232Z,12.09
2023-04-16T12:31:02.282Z,12.06
2023-04-16T12:33:29.647Z,12.36
2023-04-16T12:35:56.600Z,12.39
2023-04-16T12:38:24.726Z,12.25
2023-04-16T12:40:51.711Z,12.07
2023-04-16T12:43:19.635Z,11.94
2023-04-16T12:45:46.384Z,12.08
2023-04-16T12:48:12.894Z,12.13
2023-04-16T12:50:44.169Z,12.17
2023-04-16T12:53:11.720Z,11.89
2023-04-16T12:55:38.286Z,12.02
2023-04-16T12:58:04.780Z,12.37
2023-04-16T13:00:31.325Z,12.25
2023-04-16T13:02:57.903Z,12.40
2023-04-16T13:05:24.481Z,12.77
2023-04-16T13:07:51.023Z,13.07
2023-04-16T13:10:17.647Z,13.00
2023-04-16T13:12:44.136Z,12.97
2023-04-16T13:15:11.032Z,13.01
2023-04-16T13:17:37.590Z,13.03
2023-04-16T13:20:04.604Z,13.06
2023-04-16T13:22:31.141Z,13.18
2023-04-16T13:24:57.711Z,13.03
2023-04-16T13:27:24.322Z,12.78
2023-04-16T13:29:50.812Z,12.80
2023-04-16T13:32:18.790Z,12.66
2023-04-16T13:34:45.491Z,12.44
2023-04-16T13:37:11.945Z,12.38
2023-04-16T13:39:38.461Z,12.43
2023-04-16T13:42:05.106Z,12.40
2023-04-16T13:44:31.608Z,12.16
2023-04-16T13:46:58.860Z,11.96
2023-04-16T13:49:25.631Z,12.02
2023-04-16T13:51:52.095Z,11.63
2023-04-16T13:54:18.590Z,11.74
2023-04-16T13:56:45.271Z,11.92
2023-04-16T13:59:11.883Z,12.04
2023-04-16T14:01:38.462Z,12.03
2023-04-16T14:04:06.834Z,12.19
2023-04-16T14:06:34.649Z,12.16
2023-04-16T14:09:01.856Z,11.91
2023-04-16T14:11:28.880Z,11.70
2023-04-16T14:13:55.814Z,11.76
2023-04-16T14:16:22.391Z,11.90
2023-04-16T14:18:49.034Z,11.94
2023-04-16T14:21:15.637Z,12.00
2023-04-16T14:23:42.109Z,12.26
2023-04-16T14:26:08.578Z,12.32
2023-04-16T14:28:35.650Z,12.36
2023-04-16T14:31:02.250Z,12.55
2023-04-16T14:33:28.890Z,12.75
2023-04-16T14:35:55.455Z,12.81
2023-04-16T14:38:22.021Z,12.88
2023-04-16T14:40:48.783Z,12.87
2023-04-16T14:43:15.407Z,12.76
2023-04-16T14:45:41.950Z,12.64
2023-04-16T14:48:08.599Z,12.53
2023-04-16T14:50:38.859Z,12.70
2023-04-16T14:53:05.865Z,12.35
2023-04-16T14:55:32.610Z,12.53
2023-04-16T14:57:59.702Z,12.37
2023-04-16T15:00:27.226Z,12.11
2023-04-16T15:02:55.561Z,12.12
2023-04-16T15:05:22.309Z,12.20
2023-04-16T15:07:48.912Z,12.13
2023-04-16T15:10:15.473Z,11.85
2023-04-16T15:12:42.030Z,11.72
2023-04-16T15:15:09.459Z,11.90
2023-04-16T15:17:36.379Z,11.95
2023-04-16T15:20:05.842Z,11.88
2023-04-16T15:22:32.316Z,12.12
2023-04-16T15:24:58.802Z,12.08
2023-04-16T15:27:25.542Z,12.11
2023-04-16T15:29:53.801Z,12.05
2023-04-16T15:32:20.325Z,12.04
2023-04-16T15:34:46.836Z,11.98
2023-04-16T15:37:13.399Z,12.22
2023-04-16T15:39:40.023Z,12.33
2023-04-16T15:42:07.617Z,12.27
2023-04-16T15:44:34.758Z,12.24
2023-04-16T15:47:01.293Z,12.02
2023-04-16T15:49:28.001Z,11.97
2023-04-16T15:51:55.641Z,11.92
2023-04-16T15:54:22.231Z,11.74
2023-04-16T15:56:48.832Z,11.40
2023-04-16T15:59:15.432Z,11.50
2023-04-16T16:01:41.958Z,11.62
2023-04-16T16:04:08.870Z,11.74
2023-04-16T16:06:37.821Z,11.78
2023-04-16T16:09:04.902Z,11.69
2023-04-16T16:11:32.348Z,11.51
2023-04-16T16:14:01.031Z,11.56
2023-04-16T16:16:28.665Z,11.67
2023-04-16T16:18:55.569Z,11.54
2023-04-16T16:21:22.036Z,11.54
2023-04-16T16:23:48.564Z,11.57
2023-04-16T16:26:15.105Z,11.17
2023-04-16T16:28:43.772Z,11.32
2023-04-16T16:31:12.129Z,11.18
2023-04-16T16:33:40.387Z,11.26
2023-04-16T16:36:11.196Z,11.45
2023-04-16T16:38:39.927Z,11.53
2023-04-16T16:41:07.150Z,11.57
2023-04-16T16:43:35.815Z,11.68
2023-04-16T16:46:02.369Z,11.68
2023-04-16T16:48:29.139Z,11.56
2023-04-16T16:50:55.880Z,11.61
2023-04-16T16:53:22.388Z,11.66
2023-04-16T16:55:48.864Z,11.70
2023-04-16T16:58:15.403Z,11.34
2023-04-16T17:00:42.011Z,11.37
2023-04-16T17:03:09.381Z,11.36
2023-04-16T17:05:36.655Z,11.37
2023-04-16T17:08:03.269Z,11.20
2023-04-16T17:10:29.776Z,11.15
2023-04-16T17:12:56.247Z,11.14
2023-04-16T17:15:23.046Z,10.81
2023-04-16T17:17:49.646Z,10.68
2023-04-16T17:20:16.214Z,10.90
2023-04-16T17:22:42.869Z,11.04
2023-04-16T17:25:10.068Z,11.22
2023-04-16T17:27:36.694Z,11.39
2023-04-16T17:30:05.264Z,11.03
2023-04-16T17:32:33.025Z,10.93
2023-04-16T17:35:03.833Z,11.04
2023-04-16T17:37:30.354Z,11.12
2023-04-16T17:39:56.870Z,11.26
2023-04-16T17:42:24.470Z,11.25
2023-04-16T17:44:51.010Z,11.41
2023-04-16T17:47:17.464Z,11.38
2023-04-16T17:49:44.330Z,11.46
2023-04-16T17:52:10.861Z,11.42
2023-04-16T17:54:37.350Z,11.31
2023-04-16T17:57:04.008Z,11.21
2023-04-16T17:59:30.502Z,11.14
2023-04-16T18:01:57.206Z,11.24
2023-04-16T18:04:23.966Z,11.16
2023-04-16T18:06:50.751Z,11.10
2023-04-16T18:09:18.967Z,10.91
2023-04-16T18:11:45.538Z,10.86
2023-04-16T18:14:14.020Z,10.89
2023-04-16T18:16:41.744Z,10.90
2023-04-16T18:19:08.481Z,10.65
2023-04-16T18:21:35.637Z,10.53
2023-04-16T18:24:03.344Z,10.52
2023-04-16T18:26:30.097Z,10.60
2023-04-16T18:28:56.928Z,10.61
2023-04-16T18:31:23.510Z,10.67
2023-04-16T18:33:57.244Z,10.74
2023-04-16T18:36:26.528Z,10.77
2023-04-16T18:39:01.502Z,10.82
2023-04-16T18:41:30.426Z,10.81
2023-04-16T18:43:57.336Z,10.82
2023-04-16T18:46:24.108Z,10.88
2023-04-16T18:48:50.866Z,10.88
2023-04-16T18:51:17.407Z,10.75
2023-04-16T18:53:45.695Z,10.60
2023-04-16T18:56:12.850Z,10.47
2023-04-16T18:58:39.554Z,10.40
2023-04-16T19:01:10.758Z,10.46
2023-04-16T19:03:37.976Z,10.57
2023-04-16T19:06:07.878Z,10.60
2023-04-16T19:08:34.323Z,10.72
2023-04-16T19:11:00.918Z,10.68
2023-04-16T19:13:27.453Z,10.73
2023-04-16T19:16:00.982Z,10.77
2023-04-16T19:18:27.713Z,10.72
2023-04-16T19:21:01.120Z,10.67
2023-04-16T19:23:28.890Z,10.73
2023-04-16T19:25:59.152Z,10.50
2023-04-16T19:28:26.183Z,10.54
2023-04-16T19:30:53.889Z,10.59
2023-04-16T19:33:20.649Z,10.43
2023-04-16T19:35:47.581Z,10.47
2023-04-16T19:38:14.415Z,10.55
2023-04-16T19:40:45.327Z,10.49
2023-04-16T19:43:12.141Z,10.39
2023-04-16T19:45:53.301Z,10.24
2023-04-16T19:48:21.343Z,10.31
2023-04-16T19:50:48.247Z,10.14
2023-04-16T19:53:16.808Z,10.06
2023-04-16T19:55:43.336Z,10.17
2023-04-16T19:58:09.918Z,10.16
2023-04-16T20:00:40.636Z,10.19
2023-04-16T20:03:07.201Z,10.09
2023-04-16T20:05:33.875Z,10.17
2023-04-16T20:08:00.510Z,10.26
2023-04-16T20:10:27.703Z,10.13
2023-04-16T20:12:54.216Z,10.07
2023-04-16T20:15:20.828Z,9.90
2023-04-16T20:17:47.458Z,10.02
2023-04-16T20:20:15.587Z,10.27
2023-04-16T20:22:43.295Z,10.38
2023-04-16T20:25:10.157Z,10.45
2023-04-16T20:27:36.756Z,10.46
2023-04-16T20:30:05.312Z,10.43
2023-04-16T20:32:31.863Z,10.32
2023-04-16T20:34:58.400Z,10.36
2023-04-16T20:37:24.944Z,10.42
2023-04-16T20:39:53.988Z,10.27
2023-04-16T20:42:21.937Z,9.90
2023-04-16T20:44:56.170Z,9.92
2023-04-16T20:47:22.977Z,10.02
2023-04-16T20:49:49.619Z,10.13
2023-04-16T20:52:16.724Z,10.24
2023-04-16T20:54:43.269Z,10.10
2023-04-16T20:57:09.856Z,10.15
2023-04-16T20:59:36.919Z,10.18
2023-04-16T21:02:03.682Z,10.10
2023-04-16T21:04:30.412Z,10.08
2023-04-16T21:06:57.091Z,10.10
2023-04-16T21:09:23.726Z,10.14
2023-04-16T21:11:50.235Z,10.11
2023-04-16T21:14:16.675Z,10.17
2023-04-16T21:16:43.117Z,10.17
2023-04-16T21:19:09.893Z,10.19
2023-04-16T21:21:38.162Z,10.20
2023-04-16T21:24:05.024Z,10.04
2023-04-16T21:26:31.536Z,9.95
2023-04-16T21:28:58.072Z,9.91
2023-04-16T21:31:24.615Z,9.80
2023-04-16T21:33:51.132Z,9.92
2023-04-16T21:36:17.659Z,9.87
2023-04-16T21:38:44.188Z,9.92
2023-04-16T21:41:10.724Z,9.94
2023-04-16T21:43:37.240Z,10.08
2023-04-16T21:46:03.886Z,9.98
2023-04-16T21:48:30.496Z,9.96
2023-04-16T21:51:06.286Z,9.71
2023-04-16T21:53:33.468Z,9.72
2023-04-16T21:55:59.999Z,9.80
2023-04-16T21:58:26.583Z,9.64
2023-04-16T22:00:53.219Z,9.72
2023-04-16T22:03:26.095Z,9.74
2023-04-16T22:06:03.175Z,9.80
2023-04-16T22:08:30.212Z,9.84
2023-04-16T22:11:02.128Z,9.77
2023-04-16T22:13:32.328Z,9.79
2023-04-16T22:16:03.178Z,9.76
2023-04-16T22:18:33.517Z,9.79
2023-04-16T22:21:00.904Z,9.81
2023-04-16T22:23:27.566Z,9.70
2023-04-16T22:25:56.026Z,9.68
2023-04-16T22:28:23.261Z,9.69
2023-04-16T22:30:51.070Z,9.66
2023-04-16T22:33:17.634Z,9.72
2023-04-16T22:35:44.417Z,9.74
2023-04-16T22:38:10.914Z,9.71
2023-04-16T22:40:37.497Z,9.73
2023-04-16T22:43:04.653Z,9.70
2023-04-16T22:45:31.204Z,9.63
2023-04-16T22:47:57.753Z,9.65
2023-04-16T22:50:24.253Z,9.52
2023-04-16T22:52:50.857Z,9.46
2023-04-16T22:55:17.350Z,9.39
2023-04-16T22:57:43.868Z,9.39
2023-04-16T23:00:15.682Z,9.48
2023-04-16T23:02:42.913Z,9.44
2023-04-16T23:05:09.543Z,9.21
2023-04-16T23:07:36.068Z,9.24
2023-04-16T23:10:03.085Z,9.23
2023-04-16T23:12:29.580Z,9.20
2023-04-16T23:14:56.284Z,9.13
2023-04-16T23:17:22.918Z,9.25
2023-04-16T23:19:49.469Z,9.34
2023-04-16T23:22:15.948Z,9.44
2023-04-16T23:24:42.409Z,9.52
2023-04-16T23:27:08.856Z,9.46
2023-04-16T23:29:35.336Z,9.45
2023-04-16T23:32:01.804Z,9.53
2023-04-16T23:34:28.288Z,9.53
2023-04-16T23:36:54.733Z,9.58
2023-04-16T23:39:21.219Z,9.62
2023-04-16T23:41:47.795Z,9.65
2023-04-16T23:44:14.268Z,9.62
2023-04-16T23:46:40.911Z,9.64
2023-04-16T23:49:07.683Z,9.53
2023-04-16T23:51:34.263Z,9.56
2023-04-16T23:54:00.721Z,9.41
2023-04-16T23:56:27.242Z,9.32
2023-04-16T23:58:53.692Z,9.42
